Time;durP1;ratioP1;P1;durP2;ratioP2;P2;SDS_P1;SDS_P2;PMS_P1;PMS_P2;Temp;Humidity;BMP_temperature;BMP_pressure;BME280_temperature;BME280_humidity;BME280_pressure;Samples;Min_cycle;Max_cycle;Signal;HPM_P1;HPM_P2
2022/12/02 00:00:15;;;;;;;;;;;7.10;99.90;;;;;;5012469;28;19975;-65
2022/12/02 00:02:43;;;;;;;;;;;7.10;99.90;;;;;;5013202;28;20068;-65
2022/12/02 00:05:22;;;;;;;;;;;7.10;99.90;;;;;;5013129;28;20353;-68
2022/12/02 00:07:50;;;;;;;;;;;7.10;99.90;;;;;;5013003;28;20087;-65
2022/12/02 00:10:26;;;;;;;;;;;7.10;99.90;;;;;;5011920;28;20492;-65
2022/12/02 00:12:55;;;;;;;;;;;7.20;99.90;;;;;;5013070;28;19975;-66
2022/12/02 00:15:35;;;;;;;;;;;7.10;99.90;;;;;;5013073;28;19978;-65
2022/12/02 00:18:03;;;;;;;;;;;7.00;99.90;;;;;;5012968;28;19969;-66
2022/12/02 00:20:31;;;;;;;;;;;7.00;99.90;;;;;;5012178;28;19969;-66
2022/12/02 00:22:58;;;;;;;;;;;7.10;99.90;;;;;;5012819;28;20479;-66
2022/12/02 00:25:27;;;;;;;;;;;7.10;99.90;;;;;;5012937;28;19968;-66
2022/12/02 00:27:55;;;;;;;;;;;7.10;99.90;;;;;;5012793;28;19991;-65
2022/12/02 00:30:23;;;;;;;;;;;7.10;99.90;;;;;;5011825;28;19976;-66
2022/12/02 00:32:51;;;;;;;;;;;7.10;99.90;;;;;;5012766;28;19975;-65
2022/12/02 00:35:19;;;;;;;;;;;7.00;99.90;;;;;;5012972;28;20059;-66
2022/12/02 00:37:46;;;;;;;;;;;7.10;99.90;;;;;;5012529;28;19981;-64
2022/12/02 00:40:14;;;;;;;;;;;7.00;99.90;;;;;;5011436;28;19996;-66
2022/12/02 00:42:43;;;;;;;;;;;7.10;99.90;;;;;;5012455;28;19976;-66
2022/12/02 00:47:57;;;;;;;;;;;7.10;99.90;;;;;;5012312;28;19974;-66
2022/12/02 00:50:25;;;;;;;;;;;7.20;99.90;;;;;;5011687;28;20067;-66
2022/12/02 00:52:52;;;;;;;;;;;7.10;99.90;;;;;;5012383;28;19983;-66
2022/12/02 00:55:20;;;;;;;;;;;7.00;99.90;;;;;;5012037;28;19976;-65
2022/12/02 00:57:49;;;;;;;;;;;7.00;99.90;;;;;;5012534;28;20080;-66
2022/12/02 01:00:17;;;;;;;;;;;6.90;99.90;;;;;;5011223;28;20346;-66
2022/12/02 01:02:45;;;;;;;;;;;6.90;99.90;;;;;;5012235;28;19969;-65
2022/12/02 01:05:13;;;;;;;;;;;6.90;99.90;;;;;;5012236;28;19975;-66
2022/12/02 01:07:40;;;;;;;;;;;6.90;99.90;;;;;;5012062;28;20353;-65
2022/12/02 01:10:09;;;;;;;;;;;6.90;99.90;;;;;;5010926;28;19987;-66
2022/12/02 01:12:36;;;;;;;;;;;6.90;99.90;;;;;;5012051;28;19969;-66
2022/12/02 01:15:06;;;;;;;;;;;6.80;99.90;;;;;;5012237;28;20143;-65
2022/12/02 01:17:34;;;;;;;;;;;6.70;99.90;;;;;;5011914;28;20456;-66
2022/12/02 01:20:02;;;;;;;;;;;6.80;99.90;;;;;;5011241;28;19992;-66
2022/12/02 01:22:30;;;;;;;;;;;6.90;99.90;;;;;;5011816;28;19975;-65
2022/12/02 01:24:57;;;;;;;;;;;6.80;99.90;;;;;;5011973;28;19968;-65
2022/12/02 01:27:25;;;;;;;;;;;6.80;99.90;;;;;;5012150;28;19973;-66
2022/12/02 01:29:53;;;;;;;;;;;6.70;99.90;;;;;;5011332;28;20052;-66
2022/12/02 01:32:23;;;;;;;;;;;6.50;99.90;;;;;;5011907;28;19979;-66
2022/12/02 01:34:51;;;;;;;;;;;6.40;99.90;;;;;;5011736;28;19976;-66
2022/12/02 01:37:19;;;;;;;;;;;6.20;99.90;;;;;;5011907;28;19973;-66
2022/12/02 01:39:46;;;;;;;;;;;6.30;99.90;;;;;;5010846;28;19972;-66
2022/12/02 01:42:14;;;;;;;;;;;6.10;99.90;;;;;;5011587;28;19991;-66
2022/12/02 01:44:42;;;;;;;;;;;6.10;99.90;;;;;;5011779;28;19969;-66
2022/12/02 01:47:10;;;;;;;;;;;6.10;99.90;;;;;;5011793;28;19975;-66
2022/12/02 01:49:41;;;;;;;;;;;6.10;99.90;;;;;;5009968;28;20211;-66
2022/12/02 01:52:08;;;;;;;;;;;5.70;99.90;;;;;;5011355;28;20416;-66
2022/12/02 01:54:36;;;;;;;;;;;5.60;99.90;;;;;;5011679;28;20434;-66
2022/12/02 01:57:04;;;;;;;;;;;5.60;99.90;;;;;;5011761;28;19976;-66
2022/12/02 01:59:32;;;;;;;;;;;5.70;99.90;;;;;;5011179;28;19979;-66
2022/12/02 02:01:59;;;;;;;;;;;5.80;99.90;;;;;;5011416;28;19969;-66
2022/12/02 02:04:27;;;;;;;;;;;5.60;99.90;;;;;;5011099;28;20096;-66
2022/12/02 02:06:56;;;;;;;;;;;5.70;99.90;;;;;;5011741;28;19969;-66
2022/12/02 02:09:24;;;;;;;;;;;5.70;99.90;;;;;;5014618;28;19971;-66
2022/12/02 02:11:52;;;;;;;;;;;5.70;99.90;;;;;;5014677;28;19969;-66
2022/12/02 02:14:20;;;;;;;;;;;5.60;99.90;;;;;;5015287;28;20446;-66
2022/12/02 02:16:47;;;;;;;;;;;5.50;99.90;;;;;;5015746;28;19995;-66
2022/12/02 02:19:16;;;;;;;;;;;5.50;99.90;;;;;;5015042;28;19979;-65
2022/12/02 02:21:45;;;;;;;;;;;5.30;99.90;;;;;;5014307;28;19973;-65
2022/12/02 02:24:14;;;;;;;;;;;5.30;99.90;;;;;;5014783;28;19976;-65
2022/12/02 02:26:42;;;;;;;;;;;5.50;99.90;;;;;;5015116;28;19969;-65
2022/12/02 02:29:10;;;;;;;;;;;5.50;99.90;;;;;;5014849;28;19972;-65
2022/12/02 02:31:37;;;;;;;;;;;5.60;99.90;;;;;;5014048;28;20361;-65
2022/12/02 02:34:05;;;;;;;;;;;5.60;99.90;;;;;;5014859;28;19975;-65
2022/12/02 02:36:33;;;;;;;;;;;5.80;99.90;;;;;;5014940;28;19995;-65
2022/12/02 02:39:01;;;;;;;;;;;5.90;99.90;;;;;;5014533;28;19965;-65
2022/12/02 02:41:30;;;;;;;;;;;6.10;99.90;;;;;;5013569;28;19987;-66
2022/12/02 02:43:58;;;;;;;;;;;6.20;99.90;;;;;;5014706;28;20618;-65
2022/12/02 02:46:26;;;;;;;;;;;6.30;99.90;;;;;;5014809;28;19969;-65
2022/12/02 02:48:54;;;;;;;;;;;6.40;99.90;;;;;;5014468;28;19979;-66
2022/12/02 02:51:21;;;;;;;;;;;6.50;99.90;;;;;;5013841;28;19969;-66
2022/12/02 02:53:50;;;;;;;;;;;6.60;99.90;;;;;;5014539;28;19972;-66
2022/12/02 02:56:18;;;;;;;;;;;6.60;99.90;;;;;;5014298;28;19981;-65
2022/12/02 02:58:47;;;;;;;;;;;6.60;99.90;;;;;;5014441;28;19987;-66
2022/12/02 03:01:16;;;;;;;;;;;6.60;99.90;;;;;;5013661;28;19973;-65
2022/12/02 03:03:45;;;;;;;;;;;6.60;99.90;;;;;;5014205;28;20027;-66
2022/12/02 03:06:14;;;;;;;;;;;6.40;99.90;;;;;;5014403;28;19975;-65
2022/12/02 03:08:44;;;;;;;;;;;6.40;99.90;;;;;;5014030;28;20810;-65
2022/12/02 03:11:12;;;;;;;;;;;6.50;99.90;;;;;;5013338;28;20020;-66
2022/12/02 03:13:40;;;;;;;;;;;6.40;99.90;;;;;;5014171;28;19979;-65
2022/12/02 03:16:11;;;;;;;;;;;6.50;99.90;;;;;;5014214;28;19968;-66
2022/12/02 03:18:39;;;;;;;;;;;6.50;99.90;;;;;;5014123;28;19976;-66
2022/12/02 03:21:08;;;;;;;;;;;6.60;99.90;;;;;;5013200;28;19979;-65
2022/12/02 03:23:36;;;;;;;;;;;6.70;99.90;;;;;;5013940;28;20051;-66
2022/12/02 03:26:04;;;;;;;;;;;6.70;99.90;;;;;;5013935;28;19969;-66
2022/12/02 03:28:32;;;;;;;;;;;6.60;99.90;;;;;;5013944;28;20064;-66
2022/12/02 03:31:00;;;;;;;;;;;6.60;99.90;;;;;;5013173;28;19968;-66
2022/12/02 03:33:29;;;;;;;;;;;6.60;99.90;;;;;;5013594;28;19965;-66
2022/12/02 03:35:57;;;;;;;;;;;6.70;99.90;;;;;;5013765;28;19973;-66
2022/12/02 03:38:25;;;;;;;;;;;6.60;99.90;;;;;;5013627;28;19980;-66
2022/12/02 03:40:52;;;;;;;;;;;6.70;99.90;;;;;;5012868;28;19971;-65
2022/12/02 03:43:20;;;;;;;;;;;6.60;99.90;;;;;;5013353;28;19968;-66
2022/12/02 03:45:48;;;;;;;;;;;6.40;99.90;;;;;;5013639;28;19972;-66
2022/12/02 03:50:56;;;;;;;;;;;6.60;99.90;;;;;;4981990;28;19975;-62
2022/12/02 03:53:24;;;;;;;;;;;6.60;99.90;;;;;;4993842;28;20032;-62
2022/12/02 03:55:52;;;;;;;;;;;6.60;99.90;;;;;;4993942;28;20067;-62
2022/12/02 03:58:19;;;;;;;;;;;6.70;99.90;;;;;;4993962;28;19969;-62
2022/12/02 04:00:47;;;;;;;;;;;6.60;99.90;;;;;;4993153;28;19973;-62
2022/12/02 04:03:15;;;;;;;;;;;6.70;99.90;;;;;;4993555;28;19969;-62
2022/12/02 04:05:43;;;;;;;;;;;6.70;99.90;;;;;;4993569;28;20350;-62
2022/12/02 04:08:17;;;;;;;;;;;6.70;99.90;;;;;;4975671;28;20083;-62
2022/12/02 04:10:45;;;;;;;;;;;6.70;99.90;;;;;;4984612;28;19965;-62
2022/12/02 04:13:13;;;;;;;;;;;6.70;99.90;;;;;;4993966;28;19969;-62
2022/12/02 04:15:40;;;;;;;;;;;6.70;99.90;;;;;;4993553;28;20422;-63
2022/12/02 04:18:08;;;;;;;;;;;6.70;99.90;;;;;;4993666;28;19969;-62
2022/12/02 04:20:36;;;;;;;;;;;6.60;99.90;;;;;;4993022;28;19979;-62
2022/12/02 04:23:04;;;;;;;;;;;6.70;99.90;;;;;;4993019;28;19969;-62
2022/12/02 04:25:33;;;;;;;;;;;6.70;99.90;;;;;;4973660;28;19979;-62
2022/12/02 04:28:00;;;;;;;;;;;6.70;99.90;;;;;;4973968;28;19969;-62
2022/12/02 04:30:28;;;;;;;;;;;6.70;99.90;;;;;;4973243;28;19969;-62
2022/12/02 04:32:56;;;;;;;;;;;6.70;99.90;;;;;;4973530;28;19969;-62
2022/12/02 04:35:24;;;;;;;;;;;6.50;99.90;;;;;;4973805;28;20441;-62
2022/12/02 04:37:53;;;;;;;;;;;6.50;99.90;;;;;;4973817;28;20366;-62
2022/12/02 04:40:21;;;;;;;;;;;6.40;99.90;;;;;;4981247;28;19966;-62
2022/12/02 04:42:50;;;;;;;;;;;6.40;99.90;;;;;;4992975;28;19975;-62
2022/12/02 04:45:17;;;;;;;;;;;6.40;99.90;;;;;;4993055;28;19973;-62
2022/12/02 04:47:45;;;;;;;;;;;6.30;99.90;;;;;;4993239;28;19969;-62
2022/12/02 04:50:13;;;;;;;;;;;6.20;99.90;;;;;;4992178;28;20338;-62
2022/12/02 04:52:40;;;;;;;;;;;6.30;99.90;;;;;;4992851;28;19969;-62
2022/12/02 04:55:08;;;;;;;;;;;6.30;99.90;;;;;;4992854;28;19970;-62
2022/12/02 04:57:36;;;;;;;;;;;6.50;99.90;;;;;;4987455;28;20436;-62
2022/12/02 05:00:06;;;;;;;;;;;6.50;99.90;;;;;;4972625;28;20454;-62
2022/12/02 05:02:34;;;;;;;;;;;6.40;99.90;;;;;;4973249;28;19995;-62
2022/12/02 05:05:02;;;;;;;;;;;6.30;99.90;;;;;;4973337;28;19976;-62
2022/12/02 05:07:30;;;;;;;;;;;6.30;99.90;;;;;;4973480;28;19974;-62
2022/12/02 05:09:57;;;;;;;;;;;6.20;99.90;;;;;;4974762;28;19977;-61
2022/12/02 05:12:25;;;;;;;;;;;6.10;99.90;;;;;;4987538;28;19965;-62
2022/12/02 05:14:53;;;;;;;;;;;6.00;99.90;;;;;;4972175;28;20076;-63
2022/12/02 05:17:22;;;;;;;;;;;5.90;99.90;;;;;;4964399;28;19980;-62
2022/12/02 05:19:50;;;;;;;;;;;5.80;99.90;;;;;;4959666;28;20725;-61
2022/12/02 05:22:17;;;;;;;;;;;5.60;99.90;;;;;;4959919;28;19979;-61
2022/12/02 05:24:47;;;;;;;;;;;5.40;99.90;;;;;;4960573;28;19970;-62
2022/12/02 05:27:15;;;;;;;;;;;5.30;99.90;;;;;;4961785;28;20474;-62
2022/12/02 05:29:42;;;;;;;;;;;5.10;99.90;;;;;;4961348;28;19965;-62
2022/12/02 05:32:10;;;;;;;;;;;5.00;99.90;;;;;;4961559;28;19974;-62
2022/12/02 05:34:39;;;;;;;;;;;5.00;99.90;;;;;;4959871;28;20526;-61
2022/12/02 05:37:07;;;;;;;;;;;4.90;99.90;;;;;;4961629;28;19975;-62
2022/12/02 05:39:35;;;;;;;;;;;4.80;99.90;;;;;;4961140;28;19980;-61
2022/12/02 05:42:05;;;;;;;;;;;4.70;99.90;;;;;;4961915;28;19969;-62
2022/12/02 05:44:34;;;;;;;;;;;4.60;99.90;;;;;;4963878;28;19974;-61
2022/12/02 05:47:09;;;;;;;;;;;4.60;99.90;;;;;;4965397;28;20075;-62
2022/12/02 05:49:37;;;;;;;;;;;4.40;99.90;;;;;;4964452;28;19974;-62
2022/12/02 05:52:16;;;;;;;;;;;4.40;99.90;;;;;;4965476;28;19972;-62
2022/12/02 05:54:44;;;;;;;;;;;4.30;99.90;;;;;;4963838;28;20473;-62
2022/12/02 05:57:11;;;;;;;;;;;4.20;99.90;;;;;;4965251;28;19976;-62
2022/12/02 05:59:39;;;;;;;;;;;4.30;99.90;;;;;;4964804;28;19980;-61
2022/12/02 06:02:18;;;;;;;;;;;4.20;99.90;;;;;;4965486;28;19977;-62
2022/12/02 06:04:46;;;;;;;;;;;4.20;99.90;;;;;;4961699;28;20362;-62
2022/12/02 06:07:15;;;;;;;;;;;4.20;99.90;;;;;;4965270;28;19965;-62
2022/12/02 06:09:43;;;;;;;;;;;4.20;99.90;;;;;;4964367;28;19966;-61
2022/12/02 06:12:12;;;;;;;;;;;4.20;99.90;;;;;;4965266;28;19973;-61
2022/12/02 06:14:39;;;;;;;;;;;4.20;99.90;;;;;;4961963;28;19973;-62
2022/12/02 06:17:13;;;;;;;;;;;4.10;99.90;;;;;;4964886;28;19973;-62
2022/12/02 06:19:44;;;;;;;;;;;4.10;99.90;;;;;;4964519;28;20008;-62
2022/12/02 06:22:14;;;;;;;;;;;4.00;99.90;;;;;;4965011;28;19980;-60
2022/12/02 06:24:43;;;;;;;;;;;4.00;99.90;;;;;;4961401;28;19972;-60
2022/12/02 06:27:12;;;;;;;;;;;4.00;99.90;;;;;;4964787;28;19972;-61
2022/12/02 06:29:43;;;;;;;;;;;4.00;99.90;;;;;;4964760;28;20087;-62
2022/12/02 06:32:11;;;;;;;;;;;3.90;99.90;;;;;;4965103;28;20072;-61
2022/12/02 06:34:39;;;;;;;;;;;3.90;99.90;;;;;;4960897;28;19980;-61
2022/12/02 06:37:13;;;;;;;;;;;3.80;99.90;;;;;;4964522;28;20004;-62
2022/12/02 06:39:41;;;;;;;;;;;3.90;99.90;;;;;;4964312;28;20011;-61
2022/12/02 06:42:31;;;;;;;;;;;3.80;99.90;;;;;;4963958;28;20758;-62
2022/12/02 06:45:08;;;;;;;;;;;3.80;99.90;;;;;;4960939;28;19973;-62
2022/12/02 06:47:53;;;;;;;;;;;3.80;99.90;;;;;;4963373;28;19972;-61
2022/12/02 06:50:26;;;;;;;;;;;3.80;99.90;;;;;;4962666;28;19991;-60
2022/12/02 06:53:03;;;;;;;;;;;3.70;99.90;;;;;;4964226;28;19972;-62
2022/12/02 06:55:32;;;;;;;;;;;3.70;99.90;;;;;;4961874;28;19976;-62
2022/12/02 06:58:10;;;;;;;;;;;3.70;99.90;;;;;;4964191;28;19969;-62
2022/12/02 07:00:38;;;;;;;;;;;3.60;99.90;;;;;;4963816;28;19979;-63
2022/12/02 07:03:10;;;;;;;;;;;3.60;99.90;;;;;;4963485;28;19973;-62
2022/12/02 07:05:38;;;;;;;;;;;3.60;99.90;;;;;;4962165;28;20441;-62
2022/12/02 07:08:07;;;;;;;;;;;3.50;99.90;;;;;;4963765;28;20081;-61
2022/12/02 07:10:35;;;;;;;;;;;3.50;99.90;;;;;;4963066;28;19973;-62
2022/12/02 07:13:08;;;;;;;;;;;3.50;99.90;;;;;;4963175;28;19973;-60
2022/12/02 07:15:36;;;;;;;;;;;3.50;99.90;;;;;;4957773;28;20513;-61
2022/12/02 07:18:11;;;;;;;;;;;3.50;99.90;;;;;;4961493;28;19979;-61
2022/12/02 07:20:39;;;;;;;;;;;3.50;99.90;;;;;;4963909;28;20390;-62
2022/12/02 07:23:13;;;;;;;;;;;3.40;99.90;;;;;;4969241;28;20068;-61
2022/12/02 07:25:42;;;;;;;;;;;3.40;99.90;;;;;;4973060;28;19980;-62
2022/12/02 07:28:23;;;;;;;;;;;3.40;99.90;;;;;;4974890;28;20142;-61
2022/12/02 07:30:54;;;;;;;;;;;3.40;99.90;;;;;;4974111;28;19972;-61
2022/12/02 07:33:22;;;;;;;;;;;3.40;99.90;;;;;;4973724;28;20070;-61
2022/12/02 07:35:50;;;;;;;;;;;3.30;99.90;;;;;;4974371;28;19969;-62
2022/12/02 07:38:17;;;;;;;;;;;3.40;99.90;;;;;;4974714;28;20530;-61
2022/12/02 07:41:05;;;;;;;;;;;3.40;99.90;;;;;;4974178;28;19969;-61
2022/12/02 07:43:34;;;;;;;;;;;3.40;99.90;;;;;;4974590;28;20105;-62
2022/12/02 07:46:02;;;;;;;;;;;3.50;99.90;;;;;;4974587;28;19975;-61
2022/12/02 07:48:30;;;;;;;;;;;3.40;99.90;;;;;;4974460;28;19969;-62
2022/12/02 07:50:58;;;;;;;;;;;3.40;99.90;;;;;;4973625;28;19972;-61
2022/12/02 07:53:25;;;;;;;;;;;3.50;99.90;;;;;;4982156;28;20008;-62
2022/12/02 07:55:53;;;;;;;;;;;3.40;99.90;;;;;;4988153;28;20430;-61
2022/12/02 07:58:21;;;;;;;;;;;3.50;99.90;;;;;;4994031;28;20020;-62
2022/12/02 08:01:10;;;;;;;;;;;3.40;99.90;;;;;;4993163;28;19978;-62
2022/12/02 08:03:45;;;;;;;;;;;3.40;99.90;;;;;;4993512;28;19969;-62
2022/12/02 08:06:14;;;;;;;;;;;3.40;99.90;;;;;;4992866;28;19968;-62
2022/12/02 08:08:41;;;;;;;;;;;3.40;99.90;;;;;;4993430;28;19968;-61
2022/12/02 08:11:09;;;;;;;;;;;3.40;99.90;;;;;;4992843;28;19976;-60
2022/12/02 08:13:37;;;;;;;;;;;3.40;99.90;;;;;;4993276;28;19978;-61
2022/12/02 08:16:05;;;;;;;;;;;3.40;99.90;;;;;;4993679;28;20438;-62
2022/12/02 08:18:34;;;;;;;;;;;3.40;99.90;;;;;;4993111;28;19969;-62
2022/12/02 08:21:02;;;;;;;;;;;3.40;99.90;;;;;;4992513;28;19980;-62
2022/12/02 08:23:35;;;;;;;;;;;3.30;99.90;;;;;;4983071;28;19972;-62
2022/12/02 08:26:03;;;;;;;;;;;3.30;99.90;;;;;;4988866;28;20303;-61
2022/12/02 08:28:31;;;;;;;;;;;3.30;99.90;;;;;;4992915;28;19993;-62
2022/12/02 08:30:58;;;;;;;;;;;3.40;99.90;;;;;;4992652;28;19976;-62
2022/12/02 08:33:26;;;;;;;;;;;3.40;99.90;;;;;;4993218;28;20469;-62
2022/12/02 08:35:55;;;;;;;;;;;3.30;99.90;;;;;;4993189;28;20439;-62
2022/12/02 08:38:23;;;;;;;;;;;3.30;99.90;;;;;;4992924;28;20353;-62
2022/12/02 08:40:51;;;;;;;;;;;3.30;99.90;;;;;;4992469;28;19981;-61
2022/12/02 08:43:18;;;;;;;;;;;3.30;99.90;;;;;;4993113;28;19970;-62
2022/12/02 08:45:46;;;;;;;;;;;3.20;99.90;;;;;;4993173;28;19969;-61
2022/12/02 08:48:14;;;;;;;;;;;3.10;99.90;;;;;;4993027;28;19973;-61
2022/12/02 08:50:42;;;;;;;;;;;3.10;99.90;;;;;;4991911;28;19985;-61
2022/12/02 08:53:11;;;;;;;;;;;3.00;99.90;;;;;;4985924;28;19965;-61
2022/12/02 08:55:38;;;;;;;;;;;3.00;99.90;;;;;;4981170;28;19970;-62
2022/12/02 08:58:06;;;;;;;;;;;3.00;99.90;;;;;;4973404;28;19978;-62
2022/12/02 09:00:34;;;;;;;;;;;3.00;99.90;;;;;;4972480;28;19970;-62
2022/12/02 09:03:06;;;;;;;;;;;3.10;99.90;;;;;;4973339;28;20024;-62
2022/12/02 09:05:33;;;;;;;;;;;3.10;99.90;;;;;;4973722;28;19969;-62
2022/12/02 09:08:01;;;;;;;;;;;3.10;99.90;;;;;;4973158;28;19969;-62
2022/12/02 09:10:30;;;;;;;;;;;3.10;99.90;;;;;;4972353;28;20382;-62
2022/12/02 09:12:58;;;;;;;;;;;3.10;99.90;;;;;;4973117;28;20442;-62
2022/12/02 09:15:26;;;;;;;;;;;3.10;99.90;;;;;;4973244;28;19980;-62
2022/12/02 09:17:54;;;;;;;;;;;3.10;99.90;;;;;;4973103;28;19996;-61
2022/12/02 09:20:22;;;;;;;;;;;3.10;99.90;;;;;;4972216;28;20359;-61
2022/12/02 09:22:49;;;;;;;;;;;3.10;99.90;;;;;;4977809;28;19965;-62
2022/12/02 09:25:17;;;;;;;;;;;3.20;99.90;;;;;;4984360;28;20346;-61
2022/12/02 09:27:46;;;;;;;;;;;3.20;99.90;;;;;;4992411;28;19976;-62
2022/12/02 09:30:15;;;;;;;;;;;3.20;99.90;;;;;;4991681;28;20339;-62
2022/12/02 09:32:42;;;;;;;;;;;3.20;99.90;;;;;;4992336;28;19969;-62
2022/12/02 09:35:10;;;;;;;;;;;3.30;99.90;;;;;;4992436;28;20418;-62
2022/12/02 09:37:38;;;;;;;;;;;3.40;99.90;;;;;;4992195;28;20435;-62
2022/12/02 09:40:07;;;;;;;;;;;3.40;99.90;;;;;;4991320;28;19969;-62
2022/12/02 09:42:35;;;;;;;;;;;3.30;99.90;;;;;;4992487;28;20063;-62
2022/12/02 09:45:04;;;;;;;;;;;3.40;99.90;;;;;;4992257;28;19975;-61
2022/12/02 09:47:32;;;;;;;;;;;3.40;99.90;;;;;;4992189;28;19973;-62
2022/12/02 09:50:00;;;;;;;;;;;3.40;99.90;;;;;;4992056;28;20064;-62
2022/12/02 09:52:28;;;;;;;;;;;3.40;99.90;;;;;;4985238;28;20064;-62
2022/12/02 09:54:57;;;;;;;;;;;3.50;99.90;;;;;;4984117;28;19964;-61
2022/12/02 09:57:27;;;;;;;;;;;3.40;99.90;;;;;;4992154;28;20074;-61
2022/12/02 09:59:54;;;;;;;;;;;3.40;99.90;;;;;;4991156;28;20464;-61
2022/12/02 10:02:28;;;;;;;;;;;3.50;99.90;;;;;;4992347;28;20458;-61
2022/12/02 10:04:59;;;;;;;;;;;3.50;99.90;;;;;;4992110;28;20007;-62
2022/12/02 10:07:26;;;;;;;;;;;3.60;99.90;;;;;;4992028;28;19997;-61
2022/12/02 10:09:54;;;;;;;;;;;3.60;99.90;;;;;;4991417;28;19977;-62
2022/12/02 10:12:22;;;;;;;;;;;3.50;99.90;;;;;;4992386;28;19973;-61
2022/12/02 10:14:50;;;;;;;;;;;3.50;99.90;;;;;;4992276;28;20056;-61
2022/12/02 10:17:20;;;;;;;;;;;3.50;99.90;;;;;;4992129;28;19981;-61
2022/12/02 10:19:49;;;;;;;;;;;3.50;99.90;;;;;;4991423;28;19983;-61
2022/12/02 10:22:18;;;;;;;;;;;3.60;99.90;;;;;;4984762;28;19980;-62
2022/12/02 10:24:47;;;;;;;;;;;3.50;99.90;;;;;;4983439;28;19964;-61
2022/12/02 10:27:25;;;;;;;;;;;3.50;99.90;;;;;;4991827;28;19969;-61
2022/12/02 10:29:53;;;;;;;;;;;3.60;99.90;;;;;;4993908;28;19968;-61
2022/12/02 10:32:22;;;;;;;;;;;3.60;99.90;;;;;;4995737;28;20056;-61
2022/12/02 10:35:04;;;;;;;;;;;3.60;99.90;;;;;;4995245;28;20068;-61
2022/12/02 10:37:33;;;;;;;;;;;3.60;99.90;;;;;;4995376;28;19969;-62
2022/12/02 10:40:09;;;;;;;;;;;3.60;99.90;;;;;;4994852;28;19968;-62
2022/12/02 10:42:37;;;;;;;;;;;3.60;99.90;;;;;;4995415;28;19975;-61
2022/12/02 10:45:09;;;;;;;;;;;3.50;99.90;;;;;;4995109;28;19968;-61
2022/12/02 10:47:36;;;;;;;;;;;3.60;99.90;;;;;;4995258;28;19975;-61
2022/12/02 10:50:14;;;;;;;;;;;3.60;99.90;;;;;;4994197;28;20433;-61
2022/12/02 10:52:44;;;;;;;;;;;3.60;99.90;;;;;;4988330;28;20353;-62
2022/12/02 10:55:12;;;;;;;;;;;3.60;99.90;;;;;;4986590;28;20541;-61
2022/12/02 10:57:42;;;;;;;;;;;3.60;99.90;;;;;;4995035;28;19975;-61
2022/12/02 11:00:13;;;;;;;;;;;3.50;99.90;;;;;;4994153;28;20184;-62
2022/12/02 11:02:45;;;;;;;;;;;3.50;99.90;;;;;;4995044;28;19969;-61
2022/12/02 11:05:16;;;;;;;;;;;3.50;99.90;;;;;;4994660;28;19979;-62
2022/12/02 11:07:51;;;;;;;;;;;3.50;99.90;;;;;;4994699;28;19970;-61
2022/12/02 11:10:20;;;;;;;;;;;3.50;99.90;;;;;;4994409;28;19968;-62
2022/12/02 11:12:59;;;;;;;;;;;3.40;99.90;;;;;;4994684;28;20372;-63
2022/12/02 11:15:34;;;;;;;;;;;3.40;99.90;;;;;;4994532;28;19968;-61
2022/12/02 11:18:02;;;;;;;;;;;3.40;99.90;;;;;;4994854;28;19968;-62
2022/12/02 11:20:50;;;;;;;;;;;3.40;99.90;;;;;;4993905;28;19996;-61
2022/12/02 11:23:24;;;;;;;;;;;3.40;99.90;;;;;;4981674;28;20368;-63
2022/12/02 11:25:56;;;;;;;;;;;3.40;99.90;;;;;;4988565;28;20016;-63
2022/12/02 11:28:46;;;;;;;;;;;3.40;99.90;;;;;;4994259;28;19973;-63
2022/12/02 11:31:21;;;;;;;;;;;3.40;99.90;;;;;;4993639;28;19968;-63
2022/12/02 11:34:03;;;;;;;;;;;3.40;99.90;;;;;;4994396;28;19988;-63
2022/12/02 11:36:34;;;;;;;;;;;3.30;99.90;;;;;;4993218;28;20075;-62
2022/12/02 11:39:07;;;;;;;;;;;3.30;99.90;;;;;;4994164;28;19973;-63
2022/12/02 11:41:53;;;;;;;;;;;3.40;99.90;;;;;;4992530;28;20247;-63
2022/12/02 11:44:22;;;;;;;;;;;3.40;99.90;;;;;;4994279;28;20168;-63
2022/12/02 11:46:50;;;;;;;;;;;3.30;99.90;;;;;;4993954;28;20048;-62
2022/12/02 11:49:29;;;;;;;;;;;3.30;99.90;;;;;;4993744;28;19973;-63
2022/12/02 11:52:01;;;;;;;;;;;3.30;99.90;;;;;;4989002;28;20447;-63
2022/12/02 11:54:38;;;;;;;;;;;3.40;99.90;;;;;;4985594;28;20454;-62
2022/12/02 11:57:06;;;;;;;;;;;3.40;99.90;;;;;;4993817;28;19980;-63
2022/12/02 11:59:34;;;;;;;;;;;3.40;99.90;;;;;;4993504;28;19995;-63
2022/12/02 12:02:09;;;;;;;;;;;3.40;99.90;;;;;;4993804;28;20346;-62
2022/12/02 12:04:37;;;;;;;;;;;3.40;99.90;;;;;;4993942;28;19972;-63
2022/12/02 12:07:05;;;;;;;;;;;3.40;99.90;;;;;;4993578;28;19972;-63
2022/12/02 12:09:33;;;;;;;;;;;3.50;99.90;;;;;;4993051;28;19972;-63
2022/12/02 12:12:09;;;;;;;;;;;3.50;99.90;;;;;;4993646;28;19969;-62
2022/12/02 12:14:57;;;;;;;;;;;3.50;99.90;;;;;;4993566;28;20357;-62
2022/12/02 12:17:32;;;;;;;;;;;3.50;99.90;;;;;;4993339;28;20000;-63
2022/12/02 12:20:00;;;;;;;;;;;3.50;99.90;;;;;;4992821;28;19975;-62
2022/12/02 12:22:29;;;;;;;;;;;3.50;99.90;;;;;;4986398;28;20071;-63
2022/12/02 12:25:11;;;;;;;;;;;3.40;99.90;;;;;;4985314;28;19964;-63
2022/12/02 12:27:41;;;;;;;;;;;3.40;99.90;;;;;;4992653;28;20430;-62
2022/12/02 12:30:09;;;;;;;;;;;3.40;99.90;;;;;;4992552;28;19969;-63
2022/12/02 12:32:37;;;;;;;;;;;3.40;99.90;;;;;;4993294;28;19976;-63
2022/12/02 12:35:05;;;;;;;;;;;3.40;99.90;;;;;;4993298;28;19980;-63
2022/12/02 12:37:32;;;;;;;;;;;3.30;99.90;;;;;;4992810;28;19972;-62
2022/12/02 12:40:00;;;;;;;;;;;3.40;99.90;;;;;;4992476;28;19968;-62
2022/12/02 12:42:28;;;;;;;;;;;3.40;99.90;;;;;;4993048;28;19976;-62
2022/12/02 12:44:57;;;;;;;;;;;3.30;99.90;;;;;;4993096;28;20005;-62
2022/12/02 12:47:24;;;;;;;;;;;3.30;99.90;;;;;;4992924;28;20434;-62
2022/12/02 12:49:52;;;;;;;;;;;3.30;99.90;;;;;;4992079;28;19975;-63
2022/12/02 12:52:20;;;;;;;;;;;3.30;99.90;;;;;;4985564;28;19991;-61
2022/12/02 12:54:49;;;;;;;;;;;3.40;99.90;;;;;;4984897;28;19988;-62
2022/12/02 12:57:19;;;;;;;;;;;3.40;99.90;;;;;;4992744;28;20055;-62
2022/12/02 12:59:47;;;;;;;;;;;3.40;99.90;;;;;;4992553;28;20103;-62
2022/12/02 13:02:16;;;;;;;;;;;3.30;99.90;;;;;;4993010;28;19973;-62
2022/12/02 13:04:44;;;;;;;;;;;3.30;99.90;;;;;;4992679;28;20439;-62
2022/12/02 13:07:11;;;;;;;;;;;3.20;99.90;;;;;;4992377;28;19991;-63
2022/12/02 13:09:39;;;;;;;;;;;3.30;99.90;;;;;;4991824;28;19980;-62
2022/12/02 13:12:07;;;;;;;;;;;3.20;99.90;;;;;;4992438;28;19968;-62
2022/12/02 13:14:39;;;;;;;;;;;3.20;99.90;;;;;;4992788;28;20023;-62
2022/12/02 13:17:08;;;;;;;;;;;3.20;99.90;;;;;;4992248;28;20431;-62
2022/12/02 13:19:37;;;;;;;;;;;3.20;99.90;;;;;;4991742;28;20028;-62
2022/12/02 13:22:04;;;;;;;;;;;3.20;99.90;;;;;;4986571;28;20064;-62
2022/12/02 13:24:34;;;;;;;;;;;3.10;99.90;;;;;;4971527;28;19973;-62
2022/12/02 13:27:09;;;;;;;;;;;3.20;99.90;;;;;;4969466;28;19973;-62
2022/12/02 13:29:37;;;;;;;;;;;3.20;99.90;;;;;;4972203;28;19969;-62
2022/12/02 13:32:05;;;;;;;;;;;3.20;99.90;;;;;;4973071;28;19969;-62
2022/12/02 13:34:32;;;;;;;;;;;3.20;99.90;;;;;;4973076;28;19992;-62
2022/12/02 13:37:01;;;;;;;;;;;3.30;99.90;;;;;;4972827;28;20358;-62
2022/12/02 13:39:29;;;;;;;;;;;3.30;99.90;;;;;;4972291;28;19988;-62
2022/12/02 13:41:57;;;;;;;;;;;3.20;99.90;;;;;;4972738;28;19976;-62
2022/12/02 13:44:25;;;;;;;;;;;3.20;99.90;;;;;;4973024;28;20070;-62
2022/12/02 13:46:52;;;;;;;;;;;3.20;99.90;;;;;;4972739;28;19969;-62
2022/12/02 13:49:20;;;;;;;;;;;3.20;99.90;;;;;;4972503;28;20024;-62
2022/12/02 13:51:48;;;;;;;;;;;3.20;99.90;;;;;;4972180;28;19976;-62
2022/12/02 13:54:17;;;;;;;;;;;3.20;99.90;;;;;;4980642;28;19972;-62
2022/12/02 13:56:45;;;;;;;;;;;3.20;99.90;;;;;;4985097;28;20452;-62
2022/12/02 13:59:12;;;;;;;;;;;3.10;99.90;;;;;;4992368;28;19969;-62
2022/12/02 14:01:40;;;;;;;;;;;3.10;99.90;;;;;;4991411;28;19974;-62
2022/12/02 14:04:08;;;;;;;;;;;3.10;99.90;;;;;;4993752;28;20064;-62
2022/12/02 14:06:36;;;;;;;;;;;3.10;99.90;;;;;;4995690;28;19977;-62
2022/12/02 14:09:04;;;;;;;;;;;3.10;99.90;;;;;;4995633;28;19975;-62
2022/12/02 14:11:33;;;;;;;;;;;3.10;99.90;;;;;;4995258;28;19970;-63
2022/12/02 14:14:00;;;;;;;;;;;3.10;99.90;;;;;;4995891;28;19968;-62
2022/12/02 14:16:28;;;;;;;;;;;3.00;99.90;;;;;;4995651;28;19990;-62
2022/12/02 14:18:56;;;;;;;;;;;3.00;99.90;;;;;;4995577;28;20060;-62
2022/12/02 14:21:24;;;;;;;;;;;3.00;99.90;;;;;;4994796;28;20517;-64
2022/12/02 14:23:52;;;;;;;;;;;3.00;99.90;;;;;;4990900;28;19972;-62
2022/12/02 14:26:20;;;;;;;;;;;3.00;99.90;;;;;;4987721;28;19965;-63
2022/12/02 14:28:49;;;;;;;;;;;2.90;99.90;;;;;;4995639;28;19973;-62
2022/12/02 14:31:17;;;;;;;;;;;3.00;99.90;;;;;;4994885;28;19968;-63
2022/12/02 14:33:53;;;;;;;;;;;3.00;99.90;;;;;;4995511;28;19981;-63
2022/12/02 14:36:40;;;;;;;;;;;3.00;99.90;;;;;;4995605;28;19969;-63
2022/12/02 14:39:07;;;;;;;;;;;3.00;99.90;;;;;;4995260;28;20083;-62
2022/12/02 14:41:35;;;;;;;;;;;3.00;99.90;;;;;;4994469;28;19972;-62
2022/12/02 14:44:04;;;;;;;;;;;3.00;99.90;;;;;;4994968;28;20061;-62
2022/12/02 14:46:32;;;;;;;;;;;3.00;99.90;;;;;;4995215;28;19981;-62
2022/12/02 14:49:00;;;;;;;;;;;3.00;99.90;;;;;;4995096;28;20477;-62